sensor_id;sensor_type;location;lat;lon;timestamp;P1;durP1;ratioP1;P2;durP2;ratioP2
74614;SDS011;63121;51.458;-0.110;2023-11-19T00:02:45;23.95;;;3.90;;
74614;SDS011;63121;51.458;-0.110;2023-11-19T00:06:09;28.08;;;5.25;;
74614;SDS011;63121;51.458;-0.110;2023-11-19T00:09:35;25.35;;;3.15;;
74614;SDS011;63121;51.458;-0.110;2023-11-19T00:12:59;19.52;;;2.55;;
74614;SDS011;63121;51.458;-0.110;2023-11-19T00:16:22;21.95;;;3.28;;
74614;SDS011;63121;51.458;-0.110;2023-11-19T00:19:46;21.77;;;3.22;;
74614;SDS011;63121;51.458;-0.110;2023-11-19T00:23:10;18.42;;;3.53;;
74614;SDS011;63121;51.458;-0.110;2023-11-19T00:26:36;17.08;;;2.55;;
74614;SDS011;63121;51.458;-0.110;2023-11-19T00:30:00;20.85;;;3.17;;
74614;SDS011;63121;51.458;-0.110;2023-11-19T00:33:24;16.05;;;2.92;;
74614;SDS011;63121;51.458;-0.110;2023-11-19T00:36:48;25.95;;;3.17;;
74614;SDS011;63121;51.458;-0.110;2023-11-19T00:40:12;20.77;;;2.92;;
74614;SDS011;63121;51.458;-0.110;2023-11-19T00:43:36;20.83;;;3.20;;
74614;SDS011;63121;51.458;-0.110;2023-11-19T00:47:00;24.92;;;3.42;;
74614;SDS011;63121;51.458;-0.110;2023-11-19T00:50:25;24.25;;;2.92;;
74614;SDS011;63121;51.458;-0.110;2023-11-19T00:53:49;22.85;;;3.28;;
74614;SDS011;63121;51.458;-0.110;2023-11-19T00:57:12;14.60;;;2.35;;
74614;SDS011;63121;51.458;-0.110;2023-11-19T01:00:36;15.68;;;2.30;;
74614;SDS011;63121;51.458;-0.110;2023-11-19T01:04:00;19.17;;;3.30;;
74614;SDS011;63121;51.458;-0.110;2023-11-19T01:07:24;25.50;;;3.30;;
74614;SDS011;63121;51.458;-0.110;2023-11-19T01:10:49;21.55;;;3.03;;
74614;SDS011;63121;51.458;-0.110;2023-11-19T01:14:13;18.05;;;3.58;;
74614;SDS011;63121;51.458;-0.110;2023-11-19T01:17:38;18.90;;;3.20;;
74614;SDS011;63121;51.458;-0.110;2023-11-19T01:21:02;19.17;;;3.13;;
74614;SDS011;63121;51.458;-0.110;2023-11-19T01:24:26;19.40;;;3.33;;
74614;SDS011;63121;51.458;-0.110;2023-11-19T01:27:50;29.05;;;4.05;;
74614;SDS011;63121;51.458;-0.110;2023-11-19T01:31:16;20.25;;;3.42;;
74614;SDS011;63121;51.458;-0.110;2023-11-19T01:34:40;23.20;;;3.67;;
74614;SDS011;63121;51.458;-0.110;2023-11-19T01:38:04;20.25;;;3.20;;
74614;SDS011;63121;51.458;-0.110;2023-11-19T01:41:37;22.45;;;3.10;;
74614;SDS011;63121;51.458;-0.110;2023-11-19T01:45:05;22.80;;;3.03;;
74614;SDS011;63121;51.458;-0.110;2023-11-19T01:48:33;15.93;;;3.38;;
74614;SDS011;63121;51.458;-0.110;2023-11-19T01:51:58;26.65;;;3.55;;
74614;SDS011;63121;51.458;-0.110;2023-11-19T01:55:23;24.00;;;2.88;;
74614;SDS011;63121;51.458;-0.110;2023-11-19T01:58:48;19.50;;;2.95;;
74614;SDS011;63121;51.458;-0.110;2023-11-19T02:02:13;26.08;;;3.58;;
74614;SDS011;63121;51.458;-0.110;2023-11-19T02:05:37;18.92;;;3.53;;
74614;SDS011;63121;51.458;-0.110;2023-11-19T02:09:05;17.83;;;2.40;;
74614;SDS011;63121;51.458;-0.110;2023-11-19T02:12:31;19.08;;;3.28;;
74614;SDS011;63121;51.458;-0.110;2023-11-19T02:15:55;18.80;;;3.30;;
74614;SDS011;63121;51.458;-0.110;2023-11-19T02:19:19;16.10;;;2.80;;
74614;SDS011;63121;51.458;-0.110;2023-11-19T02:22:45;22.00;;;3.03;;
74614;SDS011;63121;51.458;-0.110;2023-11-19T02:26:24;18.52;;;3.92;;
74614;SDS011;63121;51.458;-0.110;2023-11-19T02:29:50;22.80;;;3.88;;
74614;SDS011;63121;51.458;-0.110;2023-11-19T02:33:13;16.10;;;2.88;;
74614;SDS011;63121;51.458;-0.110;2023-11-19T02:36:38;23.23;;;3.30;;
74614;SDS011;63121;51.458;-0.110;2023-11-19T02:40:03;24.00;;;3.72;;
74614;SDS011;63121;51.458;-0.110;2023-11-19T02:43:31;20.33;;;2.78;;
74614;SDS011;63121;51.458;-0.110;2023-11-19T02:46:56;15.15;;;2.92;;
74614;SDS011;63121;51.458;-0.110;2023-11-19T02:50:20;22.73;;;3.50;;
74614;SDS011;63121;51.458;-0.110;2023-11-19T02:53:44;13.00;;;2.30;;
74614;SDS011;63121;51.458;-0.110;2023-11-19T02:57:08;19.70;;;3.30;;
74614;SDS011;63121;51.458;-0.110;2023-11-19T03:00:44;18.10;;;2.97;;
74614;SDS011;63121;51.458;-0.110;2023-11-19T03:04:13;20.73;;;2.90;;
74614;SDS011;63121;51.458;-0.110;2023-11-19T03:07:40;13.98;;;2.33;;
74614;SDS011;63121;51.458;-0.110;2023-11-19T03:11:03;21.15;;;3.53;;
74614;SDS011;63121;51.458;-0.110;2023-11-19T03:14:29;19.05;;;2.78;;
74614;SDS011;63121;51.458;-0.110;2023-11-19T03:17:53;18.35;;;2.97;;
74614;SDS011;63121;51.458;-0.110;2023-11-19T03:21:17;14.18;;;2.55;;
74614;SDS011;63121;51.458;-0.110;2023-11-19T03:24:41;17.85;;;2.80;;
74614;SDS011;63121;51.458;-0.110;2023-11-19T03:28:05;15.02;;;2.53;;
74614;SDS011;63121;51.458;-0.110;2023-11-19T03:31:29;21.30;;;3.28;;
74614;SDS011;63121;51.458;-0.110;2023-11-19T03:34:52;21.60;;;2.90;;
74614;SDS011;63121;51.458;-0.110;2023-11-19T03:38:17;12.88;;;2.53;;
74614;SDS011;63121;51.458;-0.110;2023-11-19T03:41:40;20.15;;;2.58;;
74614;SDS011;63121;51.458;-0.110;2023-11-19T03:45:05;11.77;;;2.30;;
74614;SDS011;63121;51.458;-0.110;2023-11-19T03:48:30;14.32;;;2.35;;
74614;SDS011;63121;51.458;-0.110;2023-11-19T03:51:54;20.60;;;2.97;;
74614;SDS011;63121;51.458;-0.110;2023-11-19T03:55:18;21.65;;;3.58;;
74614;SDS011;63121;51.458;-0.110;2023-11-19T03:58:42;17.20;;;2.92;;
74614;SDS011;63121;51.458;-0.110;2023-11-19T04:02:05;20.65;;;2.53;;
74614;SDS011;63121;51.458;-0.110;2023-11-19T04:05:29;11.02;;;1.90;;
74614;SDS011;63121;51.458;-0.110;2023-11-19T04:08:53;18.52;;;3.08;;
74614;SDS011;63121;51.458;-0.110;2023-11-19T04:12:17;14.25;;;2.38;;
74614;SDS011;63121;51.458;-0.110;2023-11-19T04:15:41;13.60;;;2.42;;
74614;SDS011;63121;51.458;-0.110;2023-11-19T04:19:06;19.30;;;3.05;;
74614;SDS011;63121;51.458;-0.110;2023-11-19T04:22:30;20.40;;;3.33;;
74614;SDS011;63121;51.458;-0.110;2023-11-19T04:25:54;15.27;;;2.72;;
74614;SDS011;63121;51.458;-0.110;2023-11-19T04:29:18;16.67;;;2.53;;
74614;SDS011;63121;51.458;-0.110;2023-11-19T04:32:42;17.25;;;2.50;;
74614;SDS011;63121;51.458;-0.110;2023-11-19T04:36:06;20.75;;;3.08;;
74614;SDS011;63121;51.458;-0.110;2023-11-19T04:39:30;19.98;;;2.53;;
74614;SDS011;63121;51.458;-0.110;2023-11-19T04:42:54;17.88;;;2.60;;
74614;SDS011;63121;51.458;-0.110;2023-11-19T04:46:18;11.00;;;3.28;;
74614;SDS011;63121;51.458;-0.110;2023-11-19T04:49:42;15.98;;;2.75;;
74614;SDS011;63121;51.458;-0.110;2023-11-19T04:53:06;22.35;;;3.22;;
74614;SDS011;63121;51.458;-0.110;2023-11-19T04:56:30;20.02;;;2.65;;
74614;SDS011;63121;51.458;-0.110;2023-11-19T04:59:53;19.60;;;3.25;;
74614;SDS011;63121;51.458;-0.110;2023-11-19T05:03:18;18.63;;;3.55;;
74614;SDS011;63121;51.458;-0.110;2023-11-19T05:06:43;18.92;;;3.38;;
74614;SDS011;63121;51.458;-0.110;2023-11-19T05:10:07;21.20;;;2.60;;
74614;SDS011;63121;51.458;-0.110;2023-11-19T05:13:31;16.20;;;2.35;;
74614;SDS011;63121;51.458;-0.110;2023-11-19T05:16:55;22.42;;;4.30;;
74614;SDS011;63121;51.458;-0.110;2023-11-19T05:20:19;14.35;;;2.40;;
74614;SDS011;63121;51.458;-0.110;2023-11-19T05:23:43;19.58;;;2.65;;
74614;SDS011;63121;51.458;-0.110;2023-11-19T05:27:07;22.55;;;3.65;;
74614;SDS011;63121;51.458;-0.110;2023-11-19T05:30:30;14.50;;;2.15;;
74614;SDS011;63121;51.458;-0.110;2023-11-19T05:33:54;21.52;;;2.53;;
74614;SDS011;63121;51.458;-0.110;2023-11-19T05:37:18;22.25;;;3.05;;
74614;SDS011;63121;51.458;-0.110;2023-11-19T05:40:42;19.33;;;3.35;;
74614;SDS011;63121;51.458;-0.110;2023-11-19T05:44:06;15.43;;;2.47;;
74614;SDS011;63121;51.458;-0.110;2023-11-19T05:47:30;17.17;;;2.47;;
74614;SDS011;63121;51.458;-0.110;2023-11-19T05:50:54;17.20;;;2.88;;
74614;SDS011;63121;51.458;-0.110;2023-11-19T05:54:20;12.10;;;2.15;;
74614;SDS011;63121;51.458;-0.110;2023-11-19T05:57:44;27.05;;;3.70;;
74614;SDS011;63121;51.458;-0.110;2023-11-19T06:01:09;25.48;;;3.35;;
74614;SDS011;63121;51.458;-0.110;2023-11-19T06:04:33;17.83;;;2.95;;
74614;SDS011;63121;51.458;-0.110;2023-11-19T06:07:57;17.25;;;2.35;;
74614;SDS011;63121;51.458;-0.110;2023-11-19T06:11:21;16.70;;;2.47;;
74614;SDS011;63121;51.458;-0.110;2023-11-19T06:14:45;19.20;;;2.53;;
74614;SDS011;63121;51.458;-0.110;2023-11-19T06:18:09;17.60;;;2.55;;
74614;SDS011;63121;51.458;-0.110;2023-11-19T06:21:33;19.65;;;3.00;;
74614;SDS011;63121;51.458;-0.110;2023-11-19T06:24:56;18.70;;;3.22;;
74614;SDS011;63121;51.458;-0.110;2023-11-19T06:28:20;12.45;;;2.30;;
74614;SDS011;63121;51.458;-0.110;2023-11-19T06:31:44;19.05;;;2.40;;
74614;SDS011;63121;51.458;-0.110;2023-11-19T06:35:08;13.68;;;1.98;;
74614;SDS011;63121;51.458;-0.110;2023-11-19T06:38:34;15.18;;;2.08;;
74614;SDS011;63121;51.458;-0.110;2023-11-19T06:42:00;16.73;;;2.72;;
74614;SDS011;63121;51.458;-0.110;2023-11-19T06:45:24;15.10;;;2.08;;
74614;SDS011;63121;51.458;-0.110;2023-11-19T06:48:48;12.75;;;2.22;;
74614;SDS011;63121;51.458;-0.110;2023-11-19T06:52:12;17.60;;;3.00;;
74614;SDS011;63121;51.458;-0.110;2023-11-19T06:55:36;18.90;;;2.83;;
74614;SDS011;63121;51.458;-0.110;2023-11-19T06:59:00;16.20;;;2.88;;
74614;SDS011;63121;51.458;-0.110;2023-11-19T07:02:24;14.18;;;1.85;;
74614;SDS011;63121;51.458;-0.110;2023-11-19T07:05:48;16.40;;;2.50;;
74614;SDS011;63121;51.458;-0.110;2023-11-19T07:09:13;17.42;;;2.75;;
74614;SDS011;63121;51.458;-0.110;2023-11-19T07:12:37;16.63;;;2.15;;
74614;SDS011;63121;51.458;-0.110;2023-11-19T07:16:00;20.38;;;2.72;;
74614;SDS011;63121;51.458;-0.110;2023-11-19T07:19:25;12.07;;;2.47;;
74614;SDS011;63121;51.458;-0.110;2023-11-19T07:22:49;15.50;;;2.45;;
74614;SDS011;63121;51.458;-0.110;2023-11-19T07:26:13;9.85;;;1.80;;
74614;SDS011;63121;51.458;-0.110;2023-11-19T07:29:37;17.50;;;2.72;;
74614;SDS011;63121;51.458;-0.110;2023-11-19T07:33:02;13.60;;;2.05;;
74614;SDS011;63121;51.458;-0.110;2023-11-19T07:36:26;18.75;;;2.80;;
74614;SDS011;63121;51.458;-0.110;2023-11-19T07:39:50;12.30;;;1.90;;
74614;SDS011;63121;51.458;-0.110;2023-11-19T07:43:14;12.57;;;2.40;;
74614;SDS011;63121;51.458;-0.110;2023-11-19T07:46:38;12.82;;;2.25;;
74614;SDS011;63121;51.458;-0.110;2023-11-19T07:50:03;14.55;;;2.55;;
74614;SDS011;63121;51.458;-0.110;2023-11-19T07:53:27;13.70;;;2.17;;
74614;SDS011;63121;51.458;-0.110;2023-11-19T07:56:51;16.98;;;2.25;;
74614;SDS011;63121;51.458;-0.110;2023-11-19T08:00:15;10.90;;;2.03;;
74614;SDS011;63121;51.458;-0.110;2023-11-19T08:03:40;9.35;;;1.70;;
74614;SDS011;63121;51.458;-0.110;2023-11-19T08:07:09;16.27;;;2.60;;
74614;SDS011;63121;51.458;-0.110;2023-11-19T08:10:33;17.35;;;3.00;;
74614;SDS011;63121;51.458;-0.110;2023-11-19T08:13:58;18.00;;;2.58;;
74614;SDS011;63121;51.458;-0.110;2023-11-19T08:17:23;13.27;;;2.35;;
74614;SDS011;63121;51.458;-0.110;2023-11-19T08:20:47;11.05;;;1.77;;
74614;SDS011;63121;51.458;-0.110;2023-11-19T08:24:11;11.40;;;2.05;;
74614;SDS011;63121;51.458;-0.110;2023-11-19T08:27:35;7.70;;;1.95;;
74614;SDS011;63121;51.458;-0.110;2023-11-19T08:30:59;13.20;;;1.92;;
74614;SDS011;63121;51.458;-0.110;2023-11-19T08:34:25;16.02;;;2.55;;
74614;SDS011;63121;51.458;-0.110;2023-11-19T08:37:49;13.50;;;1.77;;
74614;SDS011;63121;51.458;-0.110;2023-11-19T08:41:13;13.48;;;2.20;;
74614;SDS011;63121;51.458;-0.110;2023-11-19T08:44:37;16.25;;;2.28;;
74614;SDS011;63121;51.458;-0.110;2023-11-19T08:48:01;7.47;;;1.40;;
74614;SDS011;63121;51.458;-0.110;2023-11-19T08:51:25;8.98;;;2.05;;
74614;SDS011;63121;51.458;-0.110;2023-11-19T08:54:49;7.40;;;1.73;;
74614;SDS011;63121;51.458;-0.110;2023-11-19T08:58:14;11.63;;;1.75;;
74614;SDS011;63121;51.458;-0.110;2023-11-19T09:01:38;11.73;;;1.83;;
74614;SDS011;63121;51.458;-0.110;2023-11-19T09:05:03;11.93;;;2.03;;
74614;SDS011;63121;51.458;-0.110;2023-11-19T09:08:27;14.75;;;2.45;;
74614;SDS011;63121;51.458;-0.110;2023-11-19T09:11:52;13.40;;;1.80;;
74614;SDS011;63121;51.458;-0.110;2023-11-19T09:15:16;11.73;;;1.60;;
74614;SDS011;63121;51.458;-0.110;2023-11-19T09:18:40;15.25;;;2.15;;
74614;SDS011;63121;51.458;-0.110;2023-11-19T09:22:04;16.20;;;2.30;;
74614;SDS011;63121;51.458;-0.110;2023-11-19T09:25:28;15.35;;;1.90;;
74614;SDS011;63121;51.458;-0.110;2023-11-19T09:28:52;12.40;;;1.83;;
74614;SDS011;63121;51.458;-0.110;2023-11-19T09:32:21;11.50;;;1.75;;
74614;SDS011;63121;51.458;-0.110;2023-11-19T09:35:45;15.20;;;2.60;;
74614;SDS011;63121;51.458;-0.110;2023-11-19T09:39:13;16.75;;;2.80;;
74614;SDS011;63121;51.458;-0.110;2023-11-19T09:42:42;11.05;;;2.33;;
74614;SDS011;63121;51.458;-0.110;2023-11-19T09:46:09;21.38;;;2.60;;
74614;SDS011;63121;51.458;-0.110;2023-11-19T09:49:34;12.48;;;2.15;;
74614;SDS011;63121;51.458;-0.110;2023-11-19T09:52:58;19.08;;;3.00;;
74614;SDS011;63121;51.458;-0.110;2023-11-19T09:56:22;17.90;;;2.75;;
74614;SDS011;63121;51.458;-0.110;2023-11-19T09:59:46;16.33;;;2.90;;
74614;SDS011;63121;51.458;-0.110;2023-11-19T10:03:11;13.60;;;2.58;;
74614;SDS011;63121;51.458;-0.110;2023-11-19T10:06:38;16.60;;;2.53;;
74614;SDS011;63121;51.458;-0.110;2023-11-19T10:10:02;11.18;;;1.75;;
74614;SDS011;63121;51.458;-0.110;2023-11-19T10:13:28;12.45;;;2.03;;
74614;SDS011;63121;51.458;-0.110;2023-11-19T10:16:54;17.20;;;2.53;;
74614;SDS011;63121;51.458;-0.110;2023-11-19T10:20:21;17.70;;;2.63;;
74614;SDS011;63121;51.458;-0.110;2023-11-19T10:23:52;22.02;;;3.05;;
74614;SDS011;63121;51.458;-0.110;2023-11-19T10:27:16;13.07;;;1.85;;
74614;SDS011;63121;51.458;-0.110;2023-11-19T10:30:42;15.75;;;2.28;;
74614;SDS011;63121;51.458;-0.110;2023-11-19T10:34:23;12.55;;;2.00;;
74614;SDS011;63121;51.458;-0.110;2023-11-19T10:37:47;11.85;;;1.90;;
74614;SDS011;63121;51.458;-0.110;2023-11-19T10:41:28;16.20;;;1.80;;
74614;SDS011;63121;51.458;-0.110;2023-11-19T10:44:52;12.05;;;2.45;;
74614;SDS011;63121;51.458;-0.110;2023-11-19T10:48:16;17.70;;;2.13;;
74614;SDS011;63121;51.458;-0.110;2023-11-19T10:51:44;15.68;;;2.55;;
74614;SDS011;63121;51.458;-0.110;2023-11-19T10:55:09;12.68;;;2.00;;
74614;SDS011;63121;51.458;-0.110;2023-11-19T10:58:36;12.98;;;2.30;;
74614;SDS011;63121;51.458;-0.110;2023-11-19T11:02:03;12.65;;;1.58;;
74614;SDS011;63121;51.458;-0.110;2023-11-19T11:05:32;12.07;;;1.95;;
74614;SDS011;63121;51.458;-0.110;2023-11-19T11:08:59;7.88;;;1.52;;
74614;SDS011;63121;51.458;-0.110;2023-11-19T11:12:24;14.15;;;1.67;;
74614;SDS011;63121;51.458;-0.110;2023-11-19T11:15:53;10.77;;;1.52;;
74614;SDS011;63121;51.458;-0.110;2023-11-19T11:19:18;6.72;;;1.55;;
74614;SDS011;63121;51.458;-0.110;2023-11-19T11:23:32;7.78;;;1.40;;
74614;SDS011;63121;51.458;-0.110;2023-11-19T11:38:07;7.53;;;1.30;;
74614;SDS011;63121;51.458;-0.110;2023-11-19T11:41:32;10.20;;;1.52;;
74614;SDS011;63121;51.458;-0.110;2023-11-19T11:44:58;11.55;;;1.95;;
74614;SDS011;63121;51.458;-0.110;2023-11-19T11:48:22;7.20;;;1.35;;
74614;SDS011;63121;51.458;-0.110;2023-11-19T11:51:58;5.15;;;1.02;;
74614;SDS011;63121;51.458;-0.110;2023-11-19T11:59:01;9.93;;;2.42;;
74614;SDS011;63121;51.458;-0.110;2023-11-19T12:02:27;11.60;;;1.65;;
74614;SDS011;63121;51.458;-0.110;2023-11-19T12:05:52;5.95;;;1.13;;
74614;SDS011;63121;51.458;-0.110;2023-11-19T12:09:33;13.70;;;1.60;;
74614;SDS011;63121;51.458;-0.110;2023-11-19T12:13:09;9.07;;;1.90;;
74614;SDS011;63121;51.458;-0.110;2023-11-19T12:16:33;10.07;;;1.88;;
74614;SDS011;63121;51.458;-0.110;2023-11-19T12:19:57;12.60;;;1.83;;
74614;SDS011;63121;51.458;-0.110;2023-11-19T12:23:22;11.50;;;2.20;;
74614;SDS011;63121;51.458;-0.110;2023-11-19T12:26:46;10.90;;;1.50;;
74614;SDS011;63121;51.458;-0.110;2023-11-19T12:30:11;11.98;;;1.80;;
74614;SDS011;63121;51.458;-0.110;2023-11-19T12:33:35;10.80;;;1.70;;
74614;SDS011;63121;51.458;-0.110;2023-11-19T12:36:59;8.95;;;1.67;;
74614;SDS011;63121;51.458;-0.110;2023-11-19T12:40:26;6.20;;;1.67;;
74614;SDS011;63121;51.458;-0.110;2023-11-19T12:43:50;10.00;;;1.33;;
74614;SDS011;63121;51.458;-0.110;2023-11-19T12:47:21;7.57;;;1.27;;
74614;SDS011;63121;51.458;-0.110;2023-11-19T12:50:57;9.80;;;1.75;;
74614;SDS011;63121;51.458;-0.110;2023-11-19T12:54:36;11.57;;;1.65;;
74614;SDS011;63121;51.458;-0.110;2023-11-19T12:58:00;10.15;;;1.90;;
74614;SDS011;63121;51.458;-0.110;2023-11-19T13:01:35;9.52;;;2.08;;
74614;SDS011;63121;51.458;-0.110;2023-11-19T13:05:32;11.05;;;1.40;;
74614;SDS011;63121;51.458;-0.110;2023-11-19T13:08:56;8.18;;;1.40;;
74614;SDS011;63121;51.458;-0.110;2023-11-19T13:12:26;11.73;;;1.85;;
74614;SDS011;63121;51.458;-0.110;2023-11-19T13:15:50;6.00;;;1.10;;
74614;SDS011;63121;51.458;-0.110;2023-11-19T13:19:14;11.07;;;1.33;;
74614;SDS011;63121;51.458;-0.110;2023-11-19T13:22:53;8.57;;;1.38;;
74614;SDS011;63121;51.458;-0.110;2023-11-19T13:26:17;12.88;;;1.83;;
74614;SDS011;63121;51.458;-0.110;2023-11-19T13:29:40;8.63;;;1.25;;
74614;SDS011;63121;51.458;-0.110;2023-11-19T13:33:04;9.80;;;1.50;;
74614;SDS011;63121;51.458;-0.110;2023-11-19T13:36:28;9.50;;;1.42;;
74614;SDS011;63121;51.458;-0.110;2023-11-19T13:39:52;12.68;;;2.30;;
74614;SDS011;63121;51.458;-0.110;2023-11-19T13:43:16;6.55;;;1.52;;
74614;SDS011;63121;51.458;-0.110;2023-11-19T13:46:41;7.97;;;1.13;;
74614;SDS011;63121;51.458;-0.110;2023-11-19T13:50:11;7.68;;;1.30;;
74614;SDS011;63121;51.458;-0.110;2023-11-19T13:53:35;9.05;;;1.40;;
74614;SDS011;63121;51.458;-0.110;2023-11-19T13:56:59;7.07;;;1.40;;
74614;SDS011;63121;51.458;-0.110;2023-11-19T14:00:23;7.03;;;1.65;;
74614;SDS011;63121;51.458;-0.110;2023-11-19T14:03:46;9.40;;;1.70;;
74614;SDS011;63121;51.458;-0.110;2023-11-19T14:07:10;6.03;;;1.00;;
74614;SDS011;63121;51.458;-0.110;2023-11-19T14:10:38;6.40;;;1.13;;
74614;SDS011;63121;51.458;-0.110;2023-11-19T14:14:02;8.73;;;1.38;;
74614;SDS011;63121;51.458;-0.110;2023-11-19T14:17:26;4.18;;;0.82;;
74614;SDS011;63121;51.458;-0.110;2023-11-19T14:20:50;9.10;;;1.30;;
74614;SDS011;63121;51.458;-0.110;2023-11-19T14:24:13;6.05;;;1.10;;
74614;SDS011;63121;51.458;-0.110;2023-11-19T14:27:38;7.07;;;1.20;;
74614;SDS011;63121;51.458;-0.110;2023-11-19T14:31:03;10.55;;;1.35;;
74614;SDS011;63121;51.458;-0.110;2023-11-19T14:34:28;4.90;;;1.00;;
74614;SDS011;63121;51.458;-0.110;2023-11-19T14:37:52;8.50;;;1.27;;
74614;SDS011;63121;51.458;-0.110;2023-11-19T14:41:16;4.60;;;1.08;;
74614;SDS011;63121;51.458;-0.110;2023-11-19T14:44:39;7.93;;;1.02;;
74614;SDS011;63121;51.458;-0.110;2023-11-19T14:48:03;3.72;;;1.02;;
74614;SDS011;63121;51.458;-0.110;2023-11-19T14:51:29;3.88;;;1.05;;
74614;SDS011;63121;51.458;-0.110;2023-11-19T14:54:52;4.32;;;0.95;;
74614;SDS011;63121;51.458;-0.110;2023-11-19T14:58:16;7.93;;;1.30;;
74614;SDS011;63121;51.458;-0.110;2023-11-19T15:01:40;4.00;;;1.10;;
74614;SDS011;63121;51.458;-0.110;2023-11-19T15:05:05;4.75;;;0.90;;
74614;SDS011;63121;51.458;-0.110;2023-11-19T15:08:31;7.32;;;0.93;;
74614;SDS011;63121;51.458;-0.110;2023-11-19T15:11:55;6.28;;;1.20;;
74614;SDS011;63121;51.458;-0.110;2023-11-19T15:15:19;6.60;;;1.20;;
74614;SDS011;63121;51.458;-0.110;2023-11-19T15:18:50;6.97;;;0.98;;
74614;SDS011;63121;51.458;-0.110;2023-11-19T15:22:14;4.68;;;1.33;;
74614;SDS011;63121;51.458;-0.110;2023-11-19T15:25:38;5.75;;;1.30;;
74614;SDS011;63121;51.458;-0.110;2023-11-19T15:29:03;4.65;;;0.90;;
74614;SDS011;63121;51.458;-0.110;2023-11-19T15:32:27;3.83;;;0.80;;
74614;SDS011;63121;51.458;-0.110;2023-11-19T15:35:51;9.68;;;1.00;;
74614;SDS011;63121;51.458;-0.110;2023-11-19T15:39:16;4.00;;;0.70;;
74614;SDS011;63121;51.458;-0.110;2023-11-19T15:42:40;8.80;;;1.05;;
74614;SDS011;63121;51.458;-0.110;2023-11-19T15:46:08;4.57;;;0.82;;
74614;SDS011;63121;51.458;-0.110;2023-11-19T15:49:32;5.30;;;1.10;;
74614;SDS011;63121;51.458;-0.110;2023-11-19T15:52:56;5.65;;;1.13;;
74614;SDS011;63121;51.458;-0.110;2023-11-19T15:56:20;6.70;;;1.17;;
74614;SDS011;63121;51.458;-0.110;2023-11-19T15:59:44;7.72;;;1.02;;
74614;SDS011;63121;51.458;-0.110;2023-11-19T16:03:11;5.00;;;0.93;;
74614;SDS011;63121;51.458;-0.110;2023-11-19T16:06:35;5.78;;;1.15;;
74614;SDS011;63121;51.458;-0.110;2023-11-19T16:09:59;5.47;;;1.20;;
74614;SDS011;63121;51.458;-0.110;2023-11-19T16:13:23;4.75;;;0.95;;
74614;SDS011;63121;51.458;-0.110;2023-11-19T16:16:47;4.97;;;0.90;;
74614;SDS011;63121;51.458;-0.110;2023-11-19T16:20:11;3.85;;;0.80;;
74614;SDS011;63121;51.458;-0.110;2023-11-19T16:23:34;5.22;;;1.33;;
74614;SDS011;63121;51.458;-0.110;2023-11-19T16:26:58;4.50;;;0.80;;
74614;SDS011;63121;51.458;-0.110;2023-11-19T16:30:23;5.90;;;0.90;;
74614;SDS011;63121;51.458;-0.110;2023-11-19T16:33:47;3.38;;;0.80;;
74614;SDS011;63121;51.458;-0.110;2023-11-19T16:37:13;3.13;;;0.75;;
74614;SDS011;63121;51.458;-0.110;2023-11-19T16:40:37;3.65;;;0.68;;
74614;SDS011;63121;51.458;-0.110;2023-11-19T16:44:03;2.03;;;0.52;;
74614;SDS011;63121;51.458;-0.110;2023-11-19T16:47:28;3.42;;;0.70;;
74614;SDS011;63121;51.458;-0.110;2023-11-19T16:50:53;4.13;;;0.80;;
74614;SDS011;63121;51.458;-0.110;2023-11-19T16:54:17;5.82;;;0.93;;
74614;SDS011;63121;51.458;-0.110;2023-11-19T16:57:41;2.33;;;0.90;;
74614;SDS011;63121;51.458;-0.110;2023-11-19T17:01:07;2.67;;;0.77;;
74614;SDS011;63121;51.458;-0.110;2023-11-19T17:04:31;3.92;;;0.93;;
74614;SDS011;63121;51.458;-0.110;2023-11-19T17:07:55;6.68;;;1.20;;
74614;SDS011;63121;51.458;-0.110;2023-11-19T17:11:19;3.28;;;1.02;;
74614;SDS011;63121;51.458;-0.110;2023-11-19T17:14:43;4.68;;;0.90;;
74614;SDS011;63121;51.458;-0.110;2023-11-19T17:18:07;5.00;;;1.15;;
74614;SDS011;63121;51.458;-0.110;2023-11-19T17:21:31;2.88;;;0.68;;
74614;SDS011;63121;51.458;-0.110;2023-11-19T17:24:56;4.40;;;1.10;;
74614;SDS011;63121;51.458;-0.110;2023-11-19T17:28:20;3.55;;;0.75;;
74614;SDS011;63121;51.458;-0.110;2023-11-19T17:31:44;7.20;;;1.08;;
74614;SDS011;63121;51.458;-0.110;2023-11-19T17:35:08;7.80;;;1.00;;
74614;SDS011;63121;51.458;-0.110;2023-11-19T17:38:32;5.75;;;1.30;;
74614;SDS011;63121;51.458;-0.110;2023-11-19T17:41:57;6.32;;;1.20;;
74614;SDS011;63121;51.458;-0.110;2023-11-19T17:45:21;7.60;;;1.40;;
74614;SDS011;63121;51.458;-0.110;2023-11-19T17:48:45;5.72;;;1.00;;
74614;SDS011;63121;51.458;-0.110;2023-11-19T17:52:09;4.30;;;1.15;;
74614;SDS011;63121;51.458;-0.110;2023-11-19T17:55:33;7.07;;;1.33;;
74614;SDS011;63121;51.458;-0.110;2023-11-19T17:58:57;6.43;;;1.30;;
74614;SDS011;63121;51.458;-0.110;2023-11-19T18:02:21;6.82;;;1.10;;
74614;SDS011;63121;51.458;-0.110;2023-11-19T18:05:44;8.77;;;1.70;;
74614;SDS011;63121;51.458;-0.110;2023-11-19T18:09:08;4.57;;;1.00;;
74614;SDS011;63121;51.458;-0.110;2023-11-19T18:12:33;5.30;;;1.00;;
74614;SDS011;63121;51.458;-0.110;2023-11-19T18:15:58;6.45;;;1.45;;
74614;SDS011;63121;51.458;-0.110;2023-11-19T18:19:22;7.32;;;1.70;;
74614;SDS011;63121;51.458;-0.110;2023-11-19T18:22:47;5.43;;;1.10;;
74614;SDS011;63121;51.458;-0.110;2023-11-19T18:26:11;4.35;;;0.98;;
74614;SDS011;63121;51.458;-0.110;2023-11-19T18:29:35;5.32;;;1.70;;
74614;SDS011;63121;51.458;-0.110;2023-11-19T18:32:59;6.25;;;1.55;;
74614;SDS011;63121;51.458;-0.110;2023-11-19T18:36:23;7.80;;;1.63;;
74614;SDS011;63121;51.458;-0.110;2023-11-19T18:39:47;7.50;;;1.40;;
74614;SDS011;63121;51.458;-0.110;2023-11-19T18:43:11;7.38;;;1.60;;
74614;SDS011;63121;51.458;-0.110;2023-11-19T18:46:35;12.90;;;1.92;;
74614;SDS011;63121;51.458;-0.110;2023-11-19T18:49:59;6.85;;;1.58;;
74614;SDS011;63121;51.458;-0.110;2023-11-19T18:53:25;7.72;;;1.63;;
74614;SDS011;63121;51.458;-0.110;2023-11-19T18:57:07;5.90;;;1.20;;
74614;SDS011;63121;51.458;-0.110;2023-11-19T19:00:31;10.02;;;1.60;;
74614;SDS011;63121;51.458;-0.110;2023-11-19T19:03:57;10.35;;;1.63;;
74614;SDS011;63121;51.458;-0.110;2023-11-19T19:07:21;4.35;;;1.17;;
74614;SDS011;63121;51.458;-0.110;2023-11-19T19:10:46;6.90;;;1.20;;
74614;SDS011;63121;51.458;-0.110;2023-11-19T19:14:12;4.18;;;1.33;;
74614;SDS011;63121;51.458;-0.110;2023-11-19T19:17:37;7.97;;;1.50;;
74614;SDS011;63121;51.458;-0.110;2023-11-19T19:21:02;9.55;;;1.27;;
74614;SDS011;63121;51.458;-0.110;2023-11-19T19:24:26;8.52;;;1.52;;
74614;SDS011;63121;51.458;-0.110;2023-11-19T19:27:52;10.18;;;1.35;;
74614;SDS011;63121;51.458;-0.110;2023-11-19T19:31:16;3.55;;;0.85;;
74614;SDS011;63121;51.458;-0.110;2023-11-19T19:34:40;10.27;;;1.70;;
74614;SDS011;63121;51.458;-0.110;2023-11-19T19:38:04;10.65;;;1.50;;
74614;SDS011;63121;51.458;-0.110;2023-11-19T19:41:38;8.65;;;1.80;;
74614;SDS011;63121;51.458;-0.110;2023-11-19T19:45:06;7.35;;;1.63;;
74614;SDS011;63121;51.458;-0.110;2023-11-19T19:48:30;8.48;;;1.13;;
74614;SDS011;63121;51.458;-0.110;2023-11-19T19:51:54;6.40;;;1.25;;
74614;SDS011;63121;51.458;-0.110;2023-11-19T19:55:20;10.13;;;1.48;;
74614;SDS011;63121;51.458;-0.110;2023-11-19T19:58:44;9.63;;;1.23;;
74614;SDS011;63121;51.458;-0.110;2023-11-19T20:02:08;8.93;;;1.98;;
74614;SDS011;63121;51.458;-0.110;2023-11-19T20:05:32;8.07;;;1.40;;
74614;SDS011;63121;51.458;-0.110;2023-11-19T20:09:03;8.98;;;1.70;;
74614;SDS011;63121;51.458;-0.110;2023-11-19T20:12:27;8.55;;;1.10;;
74614;SDS011;63121;51.458;-0.110;2023-11-19T20:15:52;5.78;;;1.40;;
74614;SDS011;63121;51.458;-0.110;2023-11-19T20:19:16;11.68;;;1.70;;
74614;SDS011;63121;51.458;-0.110;2023-11-19T20:22:40;8.45;;;1.52;;